Terminal Aerodrome Forecast
Issued by NWS

Home | Current Version | Previous Version | Text Only | Print | Product List | Glossary On
Versions: 1 2 3 4 5 6 7 8 9 10 11
974
FTUS42 KTBW 300539
TAFRSW
TAF
KRSW 300539Z 3006/3106 VRB04KT P6SM OVC050
     FM301300 13006KT P6SM FEW250
     FM301500 15010G15KT P6SM FEW035 FEW250
     FM302000 22011G16KT P6SM FEW060 SCT250=

USA.gov is the U.S. government's official web portal to all federal, state and local government web resources and services.